Time;durP1;ratioP1;P1;durP2;ratioP2;P2;SDS_P1;SDS_P2;PMS_P1;PMS_P2;Temp;Humidity;BMP_temperature;BMP_pressure;BME280_temperature;BME280_humidity;BME280_pressure;Samples;Min_cycle;Max_cycle;Signal;HPM_P1;HPM_P2
2021/08/27 00:01:42;;;;;;;546.45;494.05;;;;;;;-142.25;100.00;58004.16;5081473;28;20040;-53
2021/08/27 00:04:08;;;;;;;550.40;494.92;;;;;;;-142.25;100.00;58004.16;5079567;28;20035;-55
2021/08/27 00:06:34;;;;;;;538.53;483.33;;;;;;;-142.25;100.00;58004.16;5080877;28;20393;-55
2021/08/27 00:08:59;;;;;;;534.03;480.00;;;;;;;-142.25;100.00;58004.16;5082106;28;20020;-53
2021/08/27 00:11:26;;;;;;;540.27;485.37;;;;;;;-142.25;100.00;58004.16;5083193;28;20024;-57
2021/08/27 00:13:53;;;;;;;554.30;498.88;;;;;;;-142.25;100.00;58004.16;5081880;28;20020;-55
2021/08/27 00:16:18;;;;;;;535.10;479.27;;;;;;;-142.25;100.00;58004.16;5072950;28;20026;-56
2021/08/27 00:18:44;;;;;;;542.37;485.63;;;;;;;-142.25;100.00;58004.16;5077104;28;20028;-54
2021/08/27 00:21:09;;;;;;;525.27;469.47;;;;;;;-142.25;100.00;58004.16;5079025;28;20360;-55
2021/08/27 00:23:35;;;;;;;524.90;469.17;;;;;;;-142.25;100.00;58004.16;5078694;28;20032;-55
2021/08/27 00:26:01;;;;;;;525.90;469.77;;;;;;;-142.25;100.00;58004.16;5060910;28;20033;-55
2021/08/27 00:28:26;;;;;;;527.13;470.73;;;;;;;-142.25;100.00;58004.16;5079528;28;20351;-53
2021/08/27 00:30:57;;;;;;;523.87;467.90;;;;;;;-142.25;100.00;58004.16;5078349;28;20031;-57
2021/08/27 00:33:22;;;;;;;521.77;465.83;;;;;;;-142.25;100.00;58004.16;5076653;28;20312;-56
2021/08/27 00:35:48;;;;;;;525.97;469.70;;;;;;;-142.25;100.00;58004.16;5078753;28;20036;-57
2021/08/27 00:38:14;;;;;;;537.03;480.27;;;;;;;-142.25;100.00;58004.16;5077325;28;20032;-55
2021/08/27 00:40:41;;;;;;;522.93;466.93;;;;;;;-142.25;100.00;58004.16;5078318;28;20105;-56
2021/08/27 00:43:07;;;;;;;529.63;473.47;;;;;;;-142.25;100.00;58004.16;5075912;28;20131;-56
2021/08/27 00:45:33;;;;;;;532.53;476.23;;;;;;;-142.25;100.00;58004.16;5079456;28;20055;-54
2021/08/27 00:48:00;;;;;;;518.37;462.30;;;;;;;-142.25;100.00;58004.16;5076375;28;20404;-56
2021/08/27 00:50:25;;;;;;;517.60;461.87;;;;;;;-142.25;100.00;58004.16;5080225;28;20028;-57
2021/08/27 00:52:51;;;;;;;523.73;467.93;;;;;;;-142.25;100.00;58004.16;5078129;28;20636;-56
2021/08/27 00:55:16;;;;;;;522.03;465.83;;;;;;;-142.25;100.00;58004.16;5077772;28;20032;-55
2021/08/27 00:57:42;;;;;;;518.37;462.00;;;;;;;-142.25;100.00;58004.16;5063752;28;20024;-54
2021/08/27 01:00:08;;;;;;;514.23;457.87;;;;;;;-142.25;100.00;58004.16;5078020;28;20622;-52
2021/08/27 01:02:33;;;;;;;521.97;466.00;;;;;;;-142.25;100.00;58004.16;5079419;28;20576;-57
2021/08/27 01:04:59;;;;;;;514.93;458.23;;;;;;;-142.25;100.00;58004.16;5080265;28;20058;-57
2021/08/27 01:07:35;;;;;;;513.30;457.60;;;;;;;-142.25;100.00;58004.16;5079817;28;20339;-55
2021/08/27 01:10:10;;;;;;;519.13;463.20;;;;;;;-142.25;100.00;58004.16;5080086;28;20036;-53
2021/08/27 01:12:43;;;;;;;525.13;469.23;;;;;;;-142.25;100.00;58004.16;5060192;28;20031;-58
2021/08/27 01:15:20;;;;;;;519.97;463.93;;;;;;;-142.25;100.00;58004.16;5078750;28;20020;-56
2021/08/27 01:17:52;;;;;;;524.13;468.33;;;;;;;-142.25;100.00;58004.16;5079805;28;20611;-54
2021/08/27 01:20:40;;;;;;;517.30;461.77;;;;;;;-142.25;100.00;58004.16;5079123;28;20762;-54
2021/08/27 01:23:23;;;;;;;526.13;470.30;;;;;;;-142.25;100.00;58004.16;5059039;28;20048;-55
2021/08/27 01:25:52;;;;;;;536.17;480.00;;;;;;;-142.25;100.00;58004.16;5077829;28;20541;-57
2021/08/27 01:28:22;;;;;;;533.63;477.57;;;;;;;-142.25;100.00;58004.16;5067639;28;20040;-57
2021/08/27 01:31:05;;;;;;;530.60;474.60;;;;;;;-142.25;100.00;58004.16;5061365;28;20063;-58
2021/08/27 01:33:34;;;;;;;523.57;467.37;;;;;;;-142.25;100.00;58004.16;5080565;28;20055;-58
2021/08/27 01:36:05;;;;;;;524.87;468.83;;;;;;;-142.25;100.00;58004.16;5080554;28;20028;-55
2021/08/27 01:38:37;;;;;;;540.87;484.70;;;;;;;-142.25;100.00;58004.16;5080491;28;20051;-58
2021/08/27 01:41:05;;;;;;;528.30;472.23;;;;;;;-142.25;100.00;58004.16;5080700;28;20032;-56
2021/08/27 01:43:32;;;;;;;524.67;468.80;;;;;;;-142.25;100.00;58004.16;5082299;28;20173;-56
2021/08/27 01:46:01;;;;;;;526.10;469.63;;;;;;;-142.25;100.00;58004.16;5082193;28;20028;-55
2021/08/27 01:48:30;;;;;;;518.50;462.90;;;;;;;-142.25;100.00;58004.16;5079874;28;20276;-56
2021/08/27 01:50:56;;;;;;;535.50;479.00;;;;;;;-142.25;100.00;58004.16;5080751;28;20063;-58
2021/08/27 01:53:26;;;;;;;527.60;471.33;;;;;;;-142.25;100.00;58004.16;5080961;28;20039;-57
2021/08/27 01:55:57;;;;;;;514.37;458.60;;;;;;;-142.25;100.00;58004.16;5081433;28;20048;-58
2021/08/27 01:58:25;;;;;;;525.17;469.23;;;;;;;-142.25;100.00;58004.16;5082162;28;20032;-57
2021/08/27 02:00:52;;;;;;;532.37;476.10;;;;;;;-142.25;100.00;58004.16;5079216;28;20110;-58
2021/08/27 02:03:20;;;;;;;535.13;478.67;;;;;;;-142.25;100.00;58004.16;5081318;28;20079;-58
2021/08/27 02:05:45;;;;;;;537.93;481.87;;;;;;;-142.25;100.00;58004.16;5079190;28;20036;-56
2021/08/27 02:08:12;;;;;;;537.77;481.83;;;;;;;-142.25;100.00;58004.16;5080560;28;20085;-55
2021/08/27 02:10:39;;;;;;;533.30;477.43;;;;;;;-142.25;100.00;58004.16;5081078;28;20058;-56
2021/08/27 02:13:05;;;;;;;540.90;484.80;;;;;;;-142.25;100.00;58004.16;5079362;28;20082;-56
2021/08/27 02:15:30;;;;;;;536.67;480.93;;;;;;;-142.25;100.00;58004.16;5082602;28;20028;-55
2021/08/27 02:17:56;;;;;;;537.20;481.20;;;;;;;-142.25;100.00;58004.16;5080988;28;20104;-56
2021/08/27 02:20:21;;;;;;;544.40;488.10;;;;;;;-142.25;100.00;58004.16;5080574;28;20024;-57
2021/08/27 02:22:51;;;;;;;548.53;492.20;;;;;;;-142.25;100.00;58004.16;5080382;28;20517;-53
2021/08/27 02:25:20;;;;;;;543.20;486.90;;;;;;;-142.25;100.00;58004.16;5082836;28;20047;-51
2021/08/27 02:27:46;;;;;;;543.17;486.80;;;;;;;-142.25;100.00;58004.16;5080374;28;20024;-52
2021/08/27 02:30:13;;;;;;;540.10;483.93;;;;;;;-142.25;100.00;58004.16;5082605;28;20051;-52
2021/08/27 02:32:41;;;;;;;548.63;492.07;;;;;;;-142.25;100.00;58004.16;5080280;28;20127;-52
2021/08/27 02:35:09;;;;;;;538.67;482.70;;;;;;;-142.25;100.00;58004.16;5080359;28;20036;-54
2021/08/27 02:37:37;;;;;;;540.83;484.60;;;;;;;-142.25;100.00;58004.16;5080434;28;20043;-51
2021/08/27 02:40:03;;;;;;;551.27;494.67;;;;;;;-142.25;100.00;58004.16;5082701;28;20032;-56
2021/08/27 02:42:31;;;;;;;553.07;496.70;;;;;;;-142.25;100.00;58004.16;5078878;28;20028;-55
2021/08/27 02:44:58;;;;;;;546.93;490.47;;;;;;;-142.25;100.00;58004.16;5070101;28;20040;-58
2021/08/27 02:47:23;;;;;;;545.33;488.97;;;;;;;-142.25;100.00;58004.16;5080865;28;20020;-56
2021/08/27 02:49:50;;;;;;;543.50;487.27;;;;;;;-142.25;100.00;58004.16;5080291;28;20038;-57
2021/08/27 02:52:26;;;;;;;540.73;484.30;;;;;;;-142.25;100.00;58004.16;5077821;28;20036;-53
2021/08/27 02:55:13;;;;;;;533.17;477.37;;;;;;;-142.25;100.00;58004.16;5080971;28;20027;-56
2021/08/27 02:57:59;;;;;;;522.73;466.77;;;;;;;-142.25;100.00;58004.16;5080830;28;20032;-56
2021/08/27 03:00:28;;;;;;;518.13;462.43;;;;;;;-142.25;100.00;58004.16;5080770;28;20028;-56
2021/08/27 03:02:54;;;;;;;522.50;465.97;;;;;;;-142.25;100.00;58004.16;5080415;28;20039;-57
2021/08/27 03:05:24;;;;;;;506.53;451.13;;;;;;;-142.25;100.00;58004.16;5081613;28;20036;-56
2021/08/27 03:07:59;;;;;;;509.73;453.83;;;;;;;-142.25;100.00;58004.16;5082779;28;20047;-56
2021/08/27 03:10:34;;;;;;;509.65;453.85;;;;;;;-142.25;100.00;58004.16;5078499;28;20028;-55
2021/08/27 03:13:07;;;;;;;503.23;445.92;;;;;;;-142.25;100.00;58004.16;5080675;28;20325;-56
2021/08/27 03:15:38;;;;;;;503.43;447.70;;;;;;;-142.25;100.00;58004.16;5080745;28;20381;-56
2021/08/27 03:18:16;;;;;;;502.37;445.63;;;;;;;-142.25;100.00;58004.16;5080955;28;20319;-55
2021/08/27 03:20:50;;;;;;;500.47;442.50;;;;;;;-142.25;100.00;58004.16;5080089;28;20463;-57
2021/08/27 03:23:16;;;;;;;504.40;448.73;;;;;;;-142.25;100.00;58004.16;5080207;28;20029;-56
2021/08/27 03:25:45;;;;;;;503.07;447.27;;;;;;;-142.25;100.00;58004.16;5079602;28;20363;-56
2021/08/27 03:28:21;;;;;;;511.67;455.37;;;;;;;-142.25;100.00;58004.16;5078006;28;20109;-58
2021/08/27 03:30:50;;;;;;;507.50;451.30;;;;;;;-142.25;100.00;58004.16;5063372;28;20070;-56
2021/08/27 03:33:15;;;;;;;499.67;441.00;;;;;;;-142.25;100.00;58004.16;5078332;28;20048;-57
2021/08/27 03:35:42;;;;;;;502.17;446.70;;;;;;;-142.25;100.00;58004.16;5079736;28;20032;-58
2021/08/27 03:38:10;;;;;;;501.83;446.07;;;;;;;-142.25;100.00;58004.16;5079107;28;20436;-55
2021/08/27 03:40:36;;;;;;;504.83;448.97;;;;;;;-142.25;100.00;58004.16;5079373;28;20353;-56
2021/08/27 03:43:02;;;;;;;500.63;444.77;;;;;;;-142.25;100.00;58004.16;5078073;28;20373;-54
2021/08/27 03:45:31;;;;;;;496.80;437.67;;;;;;;-142.25;100.00;58004.16;5076701;28;20047;-54
2021/08/27 03:48:01;;;;;;;496.43;439.57;;;;;;;-142.25;100.00;58004.16;5078394;28;20048;-54
2021/08/27 03:50:27;;;;;;;496.30;437.17;;;;;;;-142.25;100.00;58004.16;5078284;28;20028;-55
2021/08/27 03:52:53;;;;;;;498.63;439.10;;;;;;;-142.25;100.00;58004.16;5079993;28;20070;-54
2021/08/27 03:55:21;;;;;;;499.13;441.37;;;;;;;-142.25;100.00;58004.16;5063570;28;20028;-54
2021/08/27 03:57:48;;;;;;;506.50;450.43;;;;;;;-142.25;100.00;58004.16;5064471;28;20066;-55
2021/08/27 04:00:15;;;;;;;506.60;450.87;;;;;;;-142.25;100.00;58004.16;5078042;28;20032;-54
2021/08/27 04:02:40;;;;;;;507.90;452.13;;;;;;;-142.25;100.00;58004.16;5077244;28;20044;-56
2021/08/27 04:05:12;;;;;;;507.13;451.60;;;;;;;-142.25;100.00;58004.16;5080998;28;20056;-51
2021/08/27 04:07:38;;;;;;;500.50;442.37;;;;;;;-142.25;100.00;58004.16;5060728;28;20122;-54
2021/08/27 04:10:05;;;;;;;505.37;450.03;;;;;;;-142.25;100.00;58004.16;5076657;28;20111;-55
2021/08/27 04:12:31;;;;;;;515.50;459.60;;;;;;;-142.25;100.00;58004.16;5063903;28;20048;-54
2021/08/27 04:14:56;;;;;;;517.93;461.53;;;;;;;-142.25;100.00;58004.16;5079692;28;20051;-50
2021/08/27 04:17:22;;;;;;;509.00;453.27;;;;;;;-142.25;100.00;58004.16;5077717;28;20118;-53
2021/08/27 04:19:47;;;;;;;513.13;457.50;;;;;;;-142.25;100.00;58004.16;5078027;28;20114;-52
2021/08/27 04:22:12;;;;;;;506.17;450.63;;;;;;;-142.25;100.00;58004.16;5076863;28;20141;-55
2021/08/27 04:24:38;;;;;;;518.20;461.67;;;;;;;-142.25;100.00;58004.16;5079388;28;20316;-54
2021/08/27 04:27:04;;;;;;;508.23;452.13;;;;;;;-142.25;100.00;58004.16;5076611;28;20024;-54
2021/08/27 04:29:29;;;;;;;510.90;455.33;;;;;;;-142.25;100.00;58004.16;5078768;28;20032;-53
2021/08/27 04:31:56;;;;;;;500.77;444.40;;;;;;;-142.25;100.00;58004.16;5078409;28;20036;-58
2021/08/27 04:34:22;;;;;;;508.07;452.67;;;;;;;-142.25;100.00;58004.16;5080361;28;20091;-55
2021/08/27 04:36:48;;;;;;;513.47;457.50;;;;;;;-142.25;100.00;58004.16;5080856;28;20048;-53
2021/08/27 04:39:13;;;;;;;519.60;463.80;;;;;;;-142.25;100.00;58004.16;5076548;28;20047;-58
2021/08/27 04:41:38;;;;;;;502.53;446.27;;;;;;;-142.25;100.00;58004.16;5077571;28;20028;-57
2021/08/27 04:44:04;;;;;;;511.07;455.47;;;;;;;-142.25;100.00;58004.16;5059591;28;20313;-56
2021/08/27 04:46:30;;;;;;;521.63;464.97;;;;;;;-142.25;100.00;58004.16;5080959;28;20028;-57
2021/08/27 04:48:55;;;;;;;512.63;456.90;;;;;;;-142.25;100.00;58004.16;5078793;28;20051;-57
2021/08/27 04:51:21;;;;;;;505.77;450.17;;;;;;;-142.25;100.00;58004.16;5078904;28;20035;-56
2021/08/27 04:53:46;;;;;;;512.83;457.03;;;;;;;-142.25;100.00;58004.16;5077513;28;20123;-57
2021/08/27 04:56:12;;;;;;;517.30;461.53;;;;;;;-142.25;100.00;58004.16;5065285;28;20258;-57
2021/08/27 04:58:37;;;;;;;509.47;453.93;;;;;;;-142.25;100.00;58004.16;5078933;28;20272;-56
2021/08/27 05:01:02;;;;;;;502.60;447.17;;;;;;;-142.25;100.00;58004.16;5076709;28;20036;-58
2021/08/27 05:03:28;;;;;;;510.23;454.23;;;;;;;-142.25;100.00;58004.16;5078194;28;20028;-58
2021/08/27 05:05:53;;;;;;;517.73;462.03;;;;;;;-142.25;100.00;58004.16;5078898;28;20036;-58
2021/08/27 05:08:19;;;;;;;513.33;457.47;;;;;;;-142.25;100.00;58004.16;5081040;28;20362;-56
2021/08/27 05:10:44;;;;;;;511.43;455.90;;;;;;;-142.25;100.00;58004.16;5082019;28;20025;-55
2021/08/27 05:13:10;;;;;;;523.90;467.80;;;;;;;-142.25;100.00;58004.16;5082053;28;20032;-58
2021/08/27 05:15:35;;;;;;;535.37;478.20;;;;;;;-142.25;100.00;58004.16;5080591;28;20044;-57
2021/08/27 05:18:00;;;;;;;521.97;465.83;;;;;;;-142.25;100.00;58004.16;5066435;28;20039;-58
2021/08/27 05:20:26;;;;;;;506.27;450.67;;;;;;;-142.25;100.00;58004.16;5081675;28;20036;-59
2021/08/27 05:22:51;;;;;;;506.07;450.57;;;;;;;-142.25;100.00;58004.16;5080546;28;20113;-56
2021/08/27 05:25:17;;;;;;;501.07;445.70;;;;;;;-142.25;100.00;58004.16;5072138;28;20035;-57
2021/08/27 05:27:43;;;;;;;508.87;453.37;;;;;;;-142.25;100.00;58004.16;5084904;28;20059;-55
2021/08/27 05:30:11;;;;;;;518.03;461.97;;;;;;;-142.25;100.00;58004.16;5081597;28;20070;-57
2021/08/27 05:32:36;;;;;;;517.00;461.07;;;;;;;-142.25;100.00;58004.16;5079590;28;20042;-58
2021/08/27 05:35:02;;;;;;;516.70;461.03;;;;;;;-142.25;100.00;58004.16;5080685;28;20119;-57
2021/08/27 05:37:27;;;;;;;522.17;466.30;;;;;;;-142.25;100.00;58004.16;5079935;28;20048;-58
2021/08/27 05:39:53;;;;;;;524.93;469.23;;;;;;;-142.25;100.00;58004.16;5080576;28;20050;-56
2021/08/27 05:42:19;;;;;;;526.07;470.37;;;;;;;-142.25;100.00;58004.16;5082835;28;20032;-58
2021/08/27 05:44:45;;;;;;;532.43;476.47;;;;;;;-142.25;100.00;58004.16;5080827;28;20036;-57
2021/08/27 05:47:10;;;;;;;530.87;475.07;;;;;;;-142.25;100.00;58004.16;5079222;28;20024;-57
2021/08/27 05:49:36;;;;;;;527.07;471.10;;;;;;;-142.25;100.00;58004.16;5081939;28;20089;-56
2021/08/27 05:52:03;;;;;;;534.60;478.60;;;;;;;-142.25;100.00;58004.16;5080560;28;20715;-58
2021/08/27 05:54:28;;;;;;;544.60;488.00;;;;;;;-142.25;100.00;58004.16;5081574;28;20028;-56
2021/08/27 05:56:55;;;;;;;555.70;498.70;;;;;;;-142.25;100.00;58004.16;5067533;28;20025;-57
2021/08/27 05:59:20;;;;;;;545.90;489.33;;;;;;;-142.25;100.00;58004.16;5082626;28;20074;-58
2021/08/27 06:01:46;;;;;;;549.73;492.87;;;;;;;-142.25;100.00;58004.16;5082485;28;20032;-58
2021/08/27 06:04:12;;;;;;;544.53;488.13;;;;;;;-142.25;100.00;58004.16;5081322;28;20036;-57
2021/08/27 06:06:37;;;;;;;546.07;489.63;;;;;;;-142.25;100.00;58004.16;5066786;28;20028;-57
2021/08/27 06:09:05;;;;;;;556.23;499.57;;;;;;;-142.25;100.00;58004.16;5079171;28;20024;-56
2021/08/27 06:11:31;;;;;;;559.80;503.00;;;;;;;-142.25;100.00;58004.16;5079978;28;20032;-57
2021/08/27 06:13:57;;;;;;;543.17;487.03;;;;;;;-142.25;100.00;58004.16;5079253;28;20036;-57
2021/08/27 06:16:22;;;;;;;555.30;498.60;;;;;;;-142.25;100.00;58004.16;5081015;28;20186;-58
2021/08/27 06:18:48;;;;;;;559.97;503.50;;;;;;;-142.25;100.00;58004.16;5078619;28;20389;-56
2021/08/27 06:21:13;;;;;;;563.63;506.80;;;;;;;-142.25;100.00;58004.16;5080766;28;20047;-58
2021/08/27 06:23:39;;;;;;;563.80;507.47;;;;;;;-142.25;100.00;58004.16;5079131;28;20403;-55
2021/08/27 06:26:04;;;;;;;566.30;509.93;;;;;;;-142.25;100.00;58004.16;5080041;28;20365;-56
2021/08/27 06:28:30;;;;;;;580.70;523.67;;;;;;;-142.25;100.00;58004.16;5064618;28;20028;-57
2021/08/27 06:30:55;;;;;;;569.30;512.67;;;;;;;-142.25;100.00;58004.16;5082851;28;20028;-56
2021/08/27 06:33:20;;;;;;;566.00;509.73;;;;;;;-142.25;100.00;58004.16;5081326;28;20942;-57
2021/08/27 06:35:46;;;;;;;595.40;537.97;;;;;;;-142.25;100.00;58004.16;5066210;28;20381;-55
2021/08/27 06:38:24;;;;;;;584.23;527.33;;;;;;;-142.25;100.00;58004.16;5078195;28;20028;-58
2021/08/27 06:40:59;;;;;;;577.40;520.53;;;;;;;-142.25;100.00;58004.16;5081848;28;20272;-57
2021/08/27 06:43:27;;;;;;;586.35;529.28;;;;;;;-142.25;100.00;58004.16;5081272;28;20145;-57
2021/08/27 06:45:59;;;;;;;594.20;537.10;;;;;;;-142.25;100.00;58004.16;5065725;28;20036;-56
2021/08/27 06:48:24;;;;;;;594.30;537.13;;;;;;;-142.25;100.00;58004.16;5079263;28;20037;-57
2021/08/27 06:50:50;;;;;;;596.07;538.77;;;;;;;-142.25;100.00;58004.16;5080567;28;20408;-59
2021/08/27 06:53:16;;;;;;;597.40;540.17;;;;;;;-142.25;100.00;58004.16;5079778;28;20545;-55
2021/08/27 06:55:42;;;;;;;594.60;537.70;;;;;;;-142.25;100.00;58004.16;5079963;28;20024;-58
2021/08/27 06:58:08;;;;;;;592.73;535.50;;;;;;;-142.25;100.00;58004.16;5072982;28;20022;-55
2021/08/27 07:00:34;;;;;;;598.27;541.00;;;;;;;-142.25;100.00;58004.16;5080514;28;20032;-57
2021/08/27 07:02:59;;;;;;;599.60;541.80;;;;;;;-142.25;100.00;58004.16;5080288;28;20028;-56
2021/08/27 07:05:25;;;;;;;594.50;537.43;;;;;;;-142.25;100.00;58004.16;5081382;28;20036;-57
2021/08/27 07:07:50;;;;;;;598.27;540.93;;;;;;;-142.25;100.00;58004.16;5079113;28;20033;-55
2021/08/27 07:10:16;;;;;;;592.00;535.10;;;;;;;-142.25;100.00;58004.16;5079544;28;20367;-57
2021/08/27 07:12:42;;;;;;;588.13;531.53;;;;;;;-142.25;100.00;58004.16;5079579;28;20389;-57
2021/08/27 07:15:08;;;;;;;583.67;526.53;;;;;;;-142.25;100.00;58004.16;5078121;28;20028;-57
2021/08/27 07:17:33;;;;;;;578.57;521.93;;;;;;;-142.25;100.00;58004.16;5060804;28;20024;-56
2021/08/27 07:19:59;;;;;;;587.30;529.97;;;;;;;-142.25;100.00;58004.16;5078974;28;20068;-57
2021/08/27 07:22:25;;;;;;;580.93;523.97;;;;;;;-142.25;100.00;58004.16;5082024;28;20047;-57
2021/08/27 07:24:50;;;;;;;587.60;530.03;;;;;;;-142.25;100.00;58004.16;5078490;28;20028;-57
2021/08/27 07:27:16;;;;;;;590.90;533.53;;;;;;;-142.25;100.00;58004.16;5080260;28;20032;-56
2021/08/27 07:29:41;;;;;;;592.37;535.07;;;;;;;-142.25;100.00;58004.16;5078623;28;20380;-57
2021/08/27 07:32:11;;;;;;;604.33;546.87;;;;;;;-142.25;100.00;58004.16;5077458;28;20071;-58
2021/08/27 07:34:40;;;;;;;606.87;549.03;;;;;;;-142.25;100.00;58004.16;5077018;28;20063;-57
2021/08/27 07:37:09;;;;;;;621.90;564.00;;;;;;;-142.25;100.00;58004.16;5077359;28;20077;-55
2021/08/27 07:39:35;;;;;;;636.53;578.00;;;;;;;-142.25;100.00;58004.16;5080183;28;20032;-57
2021/08/27 07:42:02;;;;;;;641.63;583.07;;;;;;;-142.25;100.00;58004.16;5077696;28;20036;-54
2021/08/27 07:44:27;;;;;;;648.30;589.80;;;;;;;-142.25;100.00;58004.16;5061333;28;20024;-56
2021/08/27 07:46:53;;;;;;;654.40;595.90;;;;;;;-142.25;100.00;58004.16;5079580;28;20035;-55
2021/08/27 07:49:18;;;;;;;652.13;593.53;;;;;;;-142.25;100.00;58004.16;5078803;28;20065;-58
2021/08/27 07:51:46;;;;;;;655.77;596.93;;;;;;;-142.25;100.00;58004.16;5079924;28;20816;-57
2021/08/27 07:54:13;;;;;;;652.27;593.67;;;;;;;-142.25;100.00;58004.16;5078100;28;20135;-57
2021/08/27 07:56:39;;;;;;;661.70;602.53;;;;;;;-142.25;100.00;58004.16;5077548;28;20055;-58
2021/08/27 07:59:04;;;;;;;654.73;596.03;;;;;;;-142.25;100.00;58004.16;5078859;28;20082;-57
2021/08/27 08:01:30;;;;;;;654.23;595.90;;;;;;;-142.25;100.00;58004.16;5078870;28;20043;-56
2021/08/27 08:03:56;;;;;;;652.77;594.40;;;;;;;-142.25;100.00;58004.16;5077440;28;20032;-58
2021/08/27 08:06:21;;;;;;;646.67;588.10;;;;;;;-142.25;100.00;58004.16;5077794;28;20040;-57
2021/08/27 08:08:47;;;;;;;638.53;580.43;;;;;;;-142.25;100.00;58004.16;5077090;28;20046;-57
2021/08/27 08:11:12;;;;;;;638.40;579.97;;;;;;;-142.25;100.00;58004.16;5078838;28;20031;-57
2021/08/27 08:13:38;;;;;;;630.77;572.33;;;;;;;-142.25;100.00;58004.16;5077254;28;20032;-58
2021/08/27 08:16:04;;;;;;;618.33;560.23;;;;;;;-142.25;100.00;58004.16;5059994;28;20050;-55
2021/08/27 08:18:30;;;;;;;619.37;561.37;;;;;;;-142.25;100.00;58004.16;5076836;28;20644;-56
2021/08/27 08:20:56;;;;;;;617.37;559.07;;;;;;;-142.25;100.00;58004.16;5077614;28;20028;-56
2021/08/27 08:23:22;;;;;;;610.47;552.03;;;;;;;-142.25;100.00;58004.16;5076827;28;20024;-56
2021/08/27 08:25:47;;;;;;;623.93;565.67;;;;;;;-142.25;100.00;58004.16;5078632;28;20336;-54
2021/08/27 08:28:13;;;;;;;619.17;561.00;;;;;;;-142.25;100.00;58004.16;5076687;28;20024;-55
2021/08/27 08:30:40;;;;;;;631.97;573.57;;;;;;;-142.25;100.00;58004.16;5078558;28;20042;-58
2021/08/27 08:33:06;;;;;;;635.23;576.60;;;;;;;-142.25;100.00;58004.16;5075294;28;20664;-55
2021/08/27 08:35:31;;;;;;;628.17;570.37;;;;;;;-142.25;100.00;58004.16;5075815;28;20277;-57
2021/08/27 08:37:57;;;;;;;636.70;578.40;;;;;;;-142.25;100.00;58004.16;5075345;28;20028;-56
2021/08/27 08:40:22;;;;;;;641.73;583.63;;;;;;;-142.25;100.00;58004.16;5077599;28;20426;-55
2021/08/27 08:42:51;;;;;;;639.10;585.92;;;;;;;-142.25;100.00;58004.16;5075661;28;20443;-58
2021/08/27 08:45:16;;;;;;;648.97;590.50;;;;;;;-142.25;100.00;58004.16;5080379;28;20046;-54
2021/08/27 08:47:45;;;;;;;651.00;592.27;;;;;;;-142.25;100.00;58004.16;5081026;28;20028;-56
2021/08/27 08:50:12;;;;;;;650.73;591.60;;;;;;;-142.25;100.00;58004.16;5081720;28;20035;-56
2021/08/27 08:52:40;;;;;;;643.07;584.17;;;;;;;-142.25;100.00;58004.16;5080611;28;20400;-57
2021/08/27 08:55:06;;;;;;;647.50;588.80;;;;;;;-142.25;100.00;58004.16;5081440;28;20048;-57
2021/08/27 08:57:31;;;;;;;656.00;597.13;;;;;;;-142.25;100.00;58004.16;5080636;28;20106;-57
2021/08/27 08:59:57;;;;;;;648.40;589.77;;;;;;;-142.25;100.00;58004.16;5080102;28;20458;-59
2021/08/27 09:02:22;;;;;;;655.47;596.27;;;;;;;-142.25;100.00;58004.16;5078057;28;20618;-58
2021/08/27 09:04:48;;;;;;;650.63;592.27;;;;;;;-142.25;100.00;58004.16;5077634;28;20127;-56
2021/08/27 09:07:14;;;;;;;291.15;268.27;;;;;;;-142.25;100.00;58004.16;5062625;28;20058;-58
2021/08/27 09:09:40;;;;;;;598.60;550.28;;;;;;;-142.25;100.00;58004.16;5076196;28;20439;-57
2021/08/27 09:12:23;;;;;;;652.80;594.10;;;;;;;-142.25;100.00;58004.16;5078918;28;20196;-59
2021/08/27 09:15:05;;;;;;;642.60;584.20;;;;;;;-142.25;100.00;58004.16;5064883;28;20029;-61
2021/08/27 09:17:41;;;;;;;634.30;576.10;;;;;;;-142.25;100.00;58004.16;5079211;28;20404;-58
2021/08/27 09:20:10;;;;;;;627.40;569.43;;;;;;;-142.25;100.00;58004.16;5077509;28;20032;-60
2021/08/27 09:22:47;;;;;;;625.77;567.87;;;;;;;-142.25;100.00;58004.16;5078679;28;20273;-57
2021/08/27 09:25:14;;;;;;;629.27;571.13;;;;;;;-142.25;100.00;58004.16;5078849;28;20032;-57
2021/08/27 09:28:08;;;;;;;641.07;582.77;;;;;;;-142.25;100.00;58004.16;5079348;28;20098;-58
2021/08/27 09:30:35;;;;;;;635.13;577.17;;;;;;;-142.25;100.00;58004.16;5078420;28;20015;-58
2021/08/27 09:33:16;;;;;;;639.43;581.17;;;;;;;-142.25;100.00;58004.16;5037506;28;1213149;-60
2021/08/27 09:36:03;;;;;;;649.97;591.50;;;;;;;-142.25;100.00;58004.16;5081329;28;20063;-58
2021/08/27 09:38:31;;;;;;;655.10;596.30;;;;;;;-142.25;100.00;58004.16;5083386;28;20640;-58
2021/08/27 09:41:06;;;;;;;652.27;593.77;;;;;;;-142.25;100.00;58004.16;5080062;28;20456;-59
2021/08/27 09:43:55;;;;;;;657.03;598.35;;;;;;;-142.25;100.00;58004.16;5081262;28;20028;-57
2021/08/27 09:46:37;;;;;;;669.40;610.57;;;;;;;-142.25;100.00;58004.16;5078886;28;20475;-58
2021/08/27 09:49:23;;;;;;;677.30;618.23;;;;;;;-142.25;100.00;58004.16;5065107;28;20070;-58
2021/08/27 09:51:48;;;;;;;676.33;617.30;;;;;;;-142.25;100.00;58004.16;5081895;28;20035;-55
2021/08/27 09:54:38;;;;;;;675.87;616.87;;;;;;;-142.25;100.00;58004.16;5080855;28;20812;-56
2021/08/27 09:57:08;;;;;;;681.20;621.90;;;;;;;-142.25;100.00;58004.16;5060155;28;20364;-57
2021/08/27 09:59:36;;;;;;;689.47;630.10;;;;;;;-142.25;100.00;58004.16;5078011;28;20131;-57
2021/08/27 10:02:05;;;;;;;697.63;637.77;;;;;;;-142.25;100.00;58004.16;5078396;28;20098;-58
2021/08/27 10:04:31;;;;;;;702.00;642.00;;;;;;;-142.25;100.00;58004.16;5081554;28;20036;-57
2021/08/27 10:06:58;;;;;;;716.40;655.53;;;;;;;-142.25;100.00;58004.16;5058766;28;20359;-56
2021/08/27 10:09:23;;;;;;;720.63;660.23;;;;;;;-142.25;100.00;58004.16;5080618;28;20024;-56
2021/08/27 10:11:56;;;;;;;717.37;656.97;;;;;;;-142.25;100.00;58004.16;5060945;28;20394;-56
2021/08/27 10:14:23;;;;;;;717.00;656.33;;;;;;;-142.25;100.00;58004.16;5082085;28;20035;-57
2021/08/27 10:16:49;;;;;;;707.33;646.60;;;;;;;-142.25;100.00;58004.16;5079673;28;20055;-57
2021/08/27 10:19:15;;;;;;;695.00;634.60;;;;;;;-142.25;100.00;58004.16;5080459;28;20098;-60
2021/08/27 10:21:40;;;;;;;696.67;636.20;;;;;;;-142.25;100.00;58004.16;5082494;28;20558;-59
2021/08/27 10:24:06;;;;;;;694.60;633.97;;;;;;;-142.25;100.00;58004.16;5077396;28;20032;-57
2021/08/27 10:26:31;;;;;;;700.73;640.30;;;;;;;-142.25;100.00;58004.16;5077605;28;20024;-58
2021/08/27 10:29:05;;;;;;;706.57;645.20;;;;;;;-142.25;100.00;58004.16;5077357;28;20077;-68
2021/08/27 10:31:47;;;;;;;699.10;639.43;;;;;;;-142.25;100.00;58004.16;5078989;28;20024;-68
2021/08/27 10:34:14;;;;;;;697.30;637.83;;;;;;;-142.25;100.00;58004.16;5079018;28;20113;-68
2021/08/27 10:36:43;;;;;;;707.60;647.73;;;;;;;-142.25;100.00;58004.16;5081441;28;20067;-68
2021/08/27 10:39:08;;;;;;;695.70;635.40;;;;;;;-142.25;100.00;58004.16;5079342;28;20563;-68
2021/08/27 10:41:35;;;;;;;689.57;630.17;;;;;;;-142.25;100.00;58004.16;5079799;28;20032;-68
2021/08/27 10:44:11;;;;;;;702.23;640.73;;;;;;;-142.25;100.00;58004.16;5078993;28;20043;-68